• Join FlightAware (Why Join?)
  • Login
  • US Flag 
02:21AM EDT


 

Airport Tracker/Info


-or-


 

Live Flight TrackerFlight Track Log ✈ AWE1940 ✈ 21-Jun-2013 ✈ KCLT - KALB

Flight Track Log - Related Links

Times and Time Zones

All times are in EDT time to prevent confusion due to time zone crossing. See the AWE1940 flight status page for this flight to view local times or setup timezone preferences in your user account.

Time Position Orientation Groundspeed Altitude Reporting Facility
EDT Latitude Longitude Course Direction KTS MPH feet Rate Location/Type
10:32PM 35.2283 -80.9394 11° North 170 196 1,500  Level Atlanta Center
10:33PM 35.2783 -80.9272 11° North 218 251 3,700 2,580 Climbing Atlanta Center
10:34PM 35.3017 -80.8603 67° East 264 304 6,500 2,880 Climbing Atlanta Center
10:35PM 35.2922 -80.7486 96° East 311 358 10,000 2,700 Climbing Atlanta Center
10:36PM 35.2936 -80.6442 89° East 311 358 12,300 2,400 Climbing Atlanta Center
10:37PM 35.3175 -80.5289 76° East 319 367 14,900 2,400 Climbing Atlanta Center
10:38PM 35.3517 -80.4075 71° East 358 412 17,200 2,340 Climbing Atlanta Center
10:39PM 35.3897 -80.2861 69° East 376 433 19,600 2,040 Climbing Atlanta Center
10:41PM 35.4508 -80.0592 72° East 404 465 22,900 1,200 Climbing Washington Center
10:42PM 35.4844 -79.9411 71° East 404 465 23,000 600 Climbing Washington Center
10:43PM 35.5186 -79.8053 73° East 404 465 24,100 1,320 Climbing Washington Center
10:44PM 35.5547 -79.6667 72° East 416 479 25,700 1,680 Climbing Washington Center
10:45PM 35.5953 -79.5078 73° East 424 488 27,500 1,980 Climbing Washington Center
10:46PM 35.6328 -79.3844 69° East 430 495 29,600 1,500 Climbing Washington Center
10:47PM 35.6892 -79.2492 63° Northeast 430 495 30,600 1,080 Climbing Washington Center
10:48PM 35.7617 -79.1244 54° Northeast 430 495 31,800 1,200 Climbing Washington Center
10:49PM 35.8586 -79.0236 40° Northeast 438 504 33,000 540 Climbing Washington Center
10:50PM 35.9619 -78.9100 42° Northeast 443 510 33,000  Level Washington Center
10:51PM 36.0586 -78.8089 40° Northeast 443 510 33,000  Level Washington Center
10:52PM 36.1531 -78.7072 41° Northeast 443 510 33,000  Level Washington Center
10:53PM 36.2475 -78.6053 41° Northeast 448 516 33,000  Level Washington Center
10:54PM 36.3419 -78.5033 41° Northeast 448 516 33,000  Level Washington Center
10:55PM 36.4361 -78.3983 42° Northeast 448 516 33,000  Level Washington Center
10:56PM 36.5325 -78.2958 40° Northeast 448 516 33,000  Level Washington Center
10:57PM 36.6286 -78.1931 41° Northeast 448 516 33,000  Level Washington Center
10:58PM 36.7097 -78.1000 43° Northeast 448 516 33,000  Level Washington Center
10:59PM 36.8039 -77.9939 42° Northeast 448 516 33,000  Level Washington Center
11:00PM 36.9083 -77.8778 42° Northeast 448 516 33,000  Level Washington Center
11:01PM 37.0211 -77.7536 41° Northeast 448 516 33,000  Level Washington Center
11:02PM 37.1147 -77.6469 42° Northeast 448 516 33,000  Level Washington Center
11:03PM 37.2083 -77.5450 41° Northeast 448 516 33,000  Level Washington Center
11:05PM 37.3950 -77.3381 41° Northeast 448 516 33,000  Level Washington Center
11:06PM 37.4714 -77.2533 41° Northeast 448 516 33,000  Level Washington Center
11:07PM 37.5731 -77.1378 42° Northeast 448 516 33,000  Level Washington Center
11:08PM 37.6661 -77.0319 42° Northeast 448 516 33,000  Level Washington Center
11:09PM 37.7592 -76.9261 42° Northeast 448 516 33,000  Level Washington Center
11:10PM 37.8500 -76.8200 43° Northeast 448 516 33,000  Level Washington Center
11:11PM 37.9406 -76.7133 43° Northeast 448 516 33,000  Level Washington Center
11:12PM 38.0394 -76.6200 37° Northeast 448 516 33,000  Level Washington Center
11:13PM 38.1425 -76.5211 37° Northeast 448 516 33,000  Level Washington Center
11:14PM 38.2433 -76.4244 37° Northeast 448 516 33,000  Level Washington Center
11:15PM 38.3481 -76.3250 37° Northeast 441 507 33,000  Level Washington Center
11:16PM 38.4489 -76.2281 37° Northeast 441 507 33,000  Level Washington Center
11:17PM 38.5494 -76.1225 39° Northeast 451 519 33,000 -60 Level Washington Center
11:18PM 38.6519 -76.0331 34° Northeast 451 519 32,900  Descending Washington Center
11:19PM 38.7503 -75.9403 36° Northeast 451 519 33,000  Climbing Washington Center
11:20PM 38.8506 -75.8422 37° Northeast 451 519 33,000  Level Washington Center
11:21PM 38.9467 -75.7411 39° Northeast 444 511 33,000  Level Washington Center
11:22PM 39.0467 -75.6478 36° Northeast 444 511 33,000  Level Washington Center
11:23PM 39.1425 -75.5514 38° Northeast 444 511 33,000  Level Washington Center
11:24PM 39.2467 -75.4683 32° Northeast 439 505 33,000 -60 Level Washington Center
11:25PM 39.3614 -75.4064 23° Northeast 434 499 32,900 -960 Descending Washington Center
11:26PM 39.4736 -75.3469 22° Northeast 434 499 31,200 -780 Descending Washington Center
11:28PM 39.6597 -75.2444 23° Northeast 424 488 30,800 -660 Descending New York Center
11:29PM 39.7769 -75.1792 23° Northeast 431 496 29,500 -960 Descending New York Center
11:30PM 39.8919 -75.1133 24° Northeast 441 507 29,000 -300 Descending New York Center
11:31PM 40.0131 -75.0478 23° Northeast 455 524 29,000  Level New York Center
11:32PM 40.1261 -74.9786 25° Northeast 455 524 29,000  Level New York Center
11:33PM 40.2431 -74.9122 23° Northeast 450 518 29,000  Level New York Center
11:34PM 40.3594 -74.8619 18° North 444 511 29,000 -540 Level New York Center
11:36PM 40.6219 -74.7478 18° North 449 517 27,500 -840 Descending Boston Center
11:37PM 40.7397 -74.6972 18° North 449 517 26,500 -780 Descending Boston Center
11:38PM 40.8575 -74.6492 17° North 449 517 26,000 -300 Descending Boston Center
11:39PM 40.9772 -74.5900 20° North 449 517 26,000  Level Boston Center
11:40PM 41.0969 -74.5444 16° North 443 510 26,000  Level Boston Center
11:41PM 41.2189 -74.4906 18° North 454 522 26,000  Level Boston Center
11:42PM 41.3322 -74.4444 17° North 466 536 26,000  Level Boston Center
11:43PM 41.4625 -74.3792 21° North 460 529 26,000 -60 Level Boston Center
11:44PM 41.5800 -74.3300 17° North 466 536 25,900 -1,500 Descending Boston Center
11:45PM 41.6978 -74.2778 18° North 466 536 23,000 -2,880 Descending Boston Center
11:46PM 41.8131 -74.2339 16° North 461 531 20,200 -2,820 Descending Boston Center
11:47PM 41.9222 -74.1811 20° North 425 489 17,400 -3,120 Descending Boston Center
11:48PM 42.0439 -74.1258 19° North 402 463 14,100 -3,000 Descending Boston Center
11:49PM 42.1447 -74.0808 18° North 399 459 11,500 -1,980 Descending Boston Center
11:50PM 42.2392 -74.0300 22° Northeast 368 423 10,200 -1,140 Descending Boston Center
11:51PM 42.3106 -73.9897 23° Northeast 323 372 9,300 -1,380 Descending Boston Center
11:52PM 42.3903 -73.9469 22° Northeast 287 330 7,500 -1,980 Descending Boston Center
11:53PM 42.4786 -73.9039 20° North 283 326 5,200 -1,620 Descending Boston Center
11:54PM 42.5331 -73.8686 26° Northeast 268 308 4,300 -1,080 Descending Boston Center